Time;durP1;ratioP1;P1;durP2;ratioP2;P2;SDS_P1;SDS_P2;PMS_P1;PMS_P2;Temp;Humidity;BMP_temperature;BMP_pressure;BME280_temperature;BME280_humidity;BME280_pressure;Samples;Min_cycle;Max_cycle;Signal;HPM_P1;HPM_P2
2021/04/06 00:00:13;;;;;;;;;;;;;;;3.20;73.45;101483.94;5067654;28;19919;-76
2021/04/06 00:02:40;;;;;;;;;;;;;;;3.22;73.02;101495.94;5064047;28;19916;-76
2021/04/06 00:05:07;;;;;;;;;;;;;;;3.20;73.10;101505.13;5086010;28;19919;-76
2021/04/06 00:07:33;;;;;;;;;;;;;;;3.11;74.76;101523.22;5067731;28;19912;-76
2021/04/06 00:10:05;;;;;;;;;;;;;;;2.99;76.01;101524.09;5084414;28;19999;-78
2021/04/06 00:12:31;;;;;;;;;;;;;;;2.93;77.46;101513.53;5065560;28;19919;-77
2021/04/06 00:14:57;;;;;;;;;;;;;;;2.79;78.16;101500.81;5082189;28;20301;-78
2021/04/06 00:17:23;;;;;;;;;;;;;;;2.79;78.68;101494.88;5085450;28;19924;-76
2021/04/06 00:19:52;;;;;;;;;;;;;;;2.77;79.11;101509.13;5066957;28;19922;-75
2021/04/06 00:22:18;;;;;;;;;;;;;;;2.76;79.64;101513.31;5065475;28;20402;-77
2021/04/06 00:24:46;;;;;;;;;;;;;;;2.73;78.43;101508.03;5081301;28;19912;-78
2021/04/06 00:27:18;;;;;;;;;;;;;;;2.75;78.08;101503.06;5080961;28;20007;-77
2021/04/06 00:29:48;;;;;;;;;;;;;;;2.78;78.22;101505.81;5066718;28;19912;-76
2021/04/06 00:32:15;;;;;;;;;;;;;;;2.71;79.84;101516.31;5064771;28;19912;-78
2021/04/06 00:34:40;;;;;;;;;;;;;;;2.64;79.10;101493.88;5085767;28;19920;-77
2021/04/06 00:37:13;;;;;;;;;;;;;;;2.64;77.71;101516.72;5069275;28;19916;-79
2021/04/06 00:39:38;;;;;;;;;;;;;;;2.55;76.30;101508.47;5087117;28;19962;-78
2021/04/06 00:42:05;;;;;;;;;;;;;;;2.49;77.19;101544.44;5064249;28;19912;-77
2021/04/06 00:44:32;;;;;;;;;;;;;;;2.23;78.85;101560.44;5064716;28;19938;-78
2021/04/06 00:46:58;;;;;;;;;;;;;;;2.07;79.89;101532.28;5083758;28;19916;-77
2021/04/06 00:49:24;;;;;;;;;;;;;;;1.95;81.03;101551.69;5067971;28;19919;-78
2021/04/06 00:51:50;;;;;;;;;;;;;;;1.91;81.74;101543.00;5086009;28;19911;-77
2021/04/06 00:54:16;;;;;;;;;;;;;;;1.84;82.59;101533.22;5087870;28;19919;-78
2021/04/06 00:56:41;;;;;;;;;;;;;;;1.79;83.08;101524.44;5078790;28;19915;-78
2021/04/06 00:59:11;;;;;;;;;;;;;;;1.77;83.47;101520.91;5069481;28;19912;-78
2021/04/06 01:01:44;;;;;;;;;;;;;;;1.83;83.62;101519.69;5062401;28;19912;-77
2021/04/06 01:04:11;;;;;;;;;;;;;;;1.86;83.71;101513.94;5062551;28;19916;-78
2021/04/06 01:06:55;;;;;;;;;;;;;;;1.85;84.22;101515.59;5061959;28;19919;-77
2021/04/06 01:09:33;;;;;;;;;;;;;;;1.93;83.98;101522.84;5066371;28;19912;-77
2021/04/06 01:12:00;;;;;;;;;;;;;;;1.94;83.64;101524.59;5066718;28;19920;-77
2021/04/06 01:14:25;;;;;;;;;;;;;;;1.93;83.67;101522.84;5082119;28;19981;-76
2021/04/06 01:16:50;;;;;;;;;;;;;;;1.91;83.48;101529.47;5061780;28;20357;-76
2021/04/06 01:19:16;;;;;;;;;;;;;;;1.89;83.33;101524.28;5086458;28;19916;-77
2021/04/06 01:21:42;;;;;;;;;;;;;;;1.96;83.07;101523.09;5084674;28;19919;-76
2021/04/06 01:24:08;;;;;;;;;;;;;;;1.95;83.02;101524.75;5083128;28;20353;-76
2021/04/06 01:26:33;;;;;;;;;;;;;;;2.03;82.65;101526.13;5079865;28;20321;-76
2021/04/06 01:28:58;;;;;;;;;;;;;;;2.06;83.09;101516.22;5063752;28;19920;-77
2021/04/06 01:31:24;;;;;;;;;;;;;;;2.10;82.16;101523.25;5070309;28;19926;-77
2021/04/06 01:33:50;;;;;;;;;;;;;;;2.07;82.02;101509.47;5066144;28;19916;-77
2021/04/06 01:36:15;;;;;;;;;;;;;;;2.12;81.31;101500.53;5086680;28;19969;-76
2021/04/06 01:38:41;;;;;;;;;;;;;;;2.16;80.93;101505.91;5061570;28;19926;-77
2021/04/06 01:41:06;;;;;;;;;;;;;;;2.24;80.37;101516.56;5063668;28;19919;-76
2021/04/06 01:43:33;;;;;;;;;;;;;;;2.18;80.19;101495.88;5066438;28;19966;-77
2021/04/06 01:46:00;;;;;;;;;;;;;;;2.08;80.65;101494.38;5063084;28;19923;-77
2021/04/06 01:48:27;;;;;;;;;;;;;;;2.04;81.09;101496.59;5081669;28;20065;-76
2021/04/06 01:50:53;;;;;;;;;;;;;;;1.99;81.27;101488.69;5064083;28;19920;-77
2021/04/06 01:53:19;;;;;;;;;;;;;;;1.99;81.09;101492.88;5083218;28;20381;-76
2021/04/06 01:55:51;;;;;;;;;;;;;;;2.00;80.67;101489.56;5065389;28;20408;-77
2021/04/06 01:58:17;;;;;;;;;;;;;;;2.03;81.45;101499.91;5081946;28;19926;-78
2021/04/06 02:01:15;;;;;;;;;;;;;;;2.01;81.75;101502.34;5065420;28;19969;-76
2021/04/06 02:03:35;;;;;;;;;;;;;;;2.09;80.60;101508.81;5083428;28;20387;-78
2021/04/06 02:06:00;;;;;;;;;;;;;;;1.99;80.37;101508.97;5082097;28;20407;-77
2021/04/06 02:08:28;;;;;;;;;;;;;;;1.99;77.93;101497.94;5085166;28;19920;-76
2021/04/06 02:10:54;;;;;;;;;;;;;;;1.91;79.33;101506.66;5081675;28;19916;-77
2021/04/06 02:13:19;;;;;;;;;;;;;;;2.04;77.90;101505.09;5066369;28;19919;-77
2021/04/06 02:15:53;;;;;;;;;;;;;;;2.02;77.67;101503.22;5066869;28;19973;-76
2021/04/06 02:18:22;;;;;;;;;;;;;;;2.09;78.48;101523.13;5083923;28;19990;-76
2021/04/06 02:20:51;;;;;;;;;;;;;;;1.80;81.17;101516.06;5079566;28;19919;-76
2021/04/06 02:23:16;;;;;;;;;;;;;;;1.55;80.64;101501.69;5086275;28;20336;-77
2021/04/06 02:25:48;;;;;;;;;;;;;;;1.36;82.31;101510.44;5065435;28;19912;-76
2021/04/06 02:28:13;;;;;;;;;;;;;;;1.22;81.85;101505.25;5087893;28;20411;-76
2021/04/06 02:30:39;;;;;;;;;;;;;;;1.10;82.37;101504.38;5084674;28;20002;-78
2021/04/06 02:33:04;;;;;;;;;;;;;;;1.08;81.99;101508.44;5069037;28;19912;-77
2021/04/06 02:35:29;;;;;;;;;;;;;;;1.01;82.79;101516.38;5066736;28;19917;-77
2021/04/06 02:37:54;;;;;;;;;;;;;;;1.04;81.68;101521.66;5084696;28;20441;-78
2021/04/06 02:40:20;;;;;;;;;;;;;;;1.05;81.61;101543.66;5084637;28;19912;-76
2021/04/06 02:42:47;;;;;;;;;;;;;;;1.15;81.42;101540.13;5083624;28;19923;-76
2021/04/06 02:45:18;;;;;;;;;;;;;;;1.16;81.70;101544.41;5084570;28;19912;-76
2021/04/06 02:47:45;;;;;;;;;;;;;;;1.16;82.74;101527.59;5083507;28;19920;-79
2021/04/06 02:50:12;;;;;;;;;;;;;;;1.08;84.17;101538.81;5067121;28;19912;-76
2021/04/06 02:52:38;;;;;;;;;;;;;;;1.02;84.39;101524.84;5072156;28;19918;-76
2021/04/06 02:55:05;;;;;;;;;;;;;;;0.97;83.87;101511.84;5068587;28;19993;-76
2021/04/06 02:57:30;;;;;;;;;;;;;;;1.00;83.96;101524.72;5087271;28;19951;-76
2021/04/06 02:59:56;;;;;;;;;;;;;;;1.01;84.39;101523.97;5066085;28;20348;-77
2021/04/06 03:02:21;;;;;;;;;;;;;;;1.01;84.06;101521.44;5083962;28;19919;-77
2021/04/06 03:04:47;;;;;;;;;;;;;;;1.01;84.24;101531.56;5070218;28;19991;-77
2021/04/06 03:07:16;;;;;;;;;;;;;;;1.08;84.69;101513.50;5065246;28;19912;-77
2021/04/06 03:09:48;;;;;;;;;;;;;;;1.06;85.00;101504.94;5068347;28;19990;-77
2021/04/06 03:12:14;;;;;;;;;;;;;;;1.00;85.54;101509.56;5070175;28;20378;-76
2021/04/06 03:14:39;;;;;;;;;;;;;;;0.99;86.46;101515.38;5068672;28;20443;-76
2021/04/06 03:17:05;;;;;;;;;;;;;;;0.96;86.36;101504.13;5067767;28;19928;-76
2021/04/06 03:19:30;;;;;;;;;;;;;;;0.91;87.43;101524.03;5087359;28;19920;-77
2021/04/06 03:21:59;;;;;;;;;;;;;;;0.86;88.08;101530.41;5065307;28;19912;-77
2021/04/06 03:24:26;;;;;;;;;;;;;;;0.82;88.23;101520.84;5088065;28;19959;-78
2021/04/06 03:26:52;;;;;;;;;;;;;;;0.80;88.39;101505.56;5064895;28;20378;-77
2021/04/06 03:29:17;;;;;;;;;;;;;;;0.76;88.68;101515.34;5065815;28;19916;-76
2021/04/06 03:31:42;;;;;;;;;;;;;;;0.73;88.56;101498.31;5068571;28;20381;-76
2021/04/06 03:34:09;;;;;;;;;;;;;;;0.76;88.83;101496.00;5067431;28;19998;-77
2021/04/06 03:36:35;;;;;;;;;;;;;;;0.79;88.80;101498.75;5084654;28;20284;-76
2021/04/06 03:39:02;;;;;;;;;;;;;;;0.77;88.39;101492.69;5066254;28;19999;-76
2021/04/06 03:41:29;;;;;;;;;;;;;;;0.84;88.25;101491.50;5078732;28;19979;-76
2021/04/06 03:44:03;;;;;;;;;;;;;;;0.84;88.07;101494.03;5066276;28;19912;-77
2021/04/06 03:46:28;;;;;;;;;;;;;;;0.81;88.06;101496.31;5083620;28;19912;-76
2021/04/06 03:49:10;;;;;;;;;;;;;;;0.76;87.94;101490.94;5083331;28;19912;-76
2021/04/06 03:51:36;;;;;;;;;;;;;;;0.80;87.52;101484.44;5066797;28;19927;-76
2021/04/06 03:54:02;;;;;;;;;;;;;;;0.83;87.11;101487.19;5067193;28;20293;-77
2021/04/06 03:56:30;;;;;;;;;;;;;;;0.82;86.68;101485.44;5068193;28;20022;-76
2021/04/06 03:59:09;;;;;;;;;;;;;;;0.79;86.88;101488.63;5070099;28;20333;-77
2021/04/06 04:01:34;;;;;;;;;;;;;;;0.79;87.05;101487.75;5067669;28;19935;-77
2021/04/06 04:03:59;;;;;;;;;;;;;;;0.80;86.91;101480.28;5091159;28;19971;-77
2021/04/06 04:06:25;;;;;;;;;;;;;;;0.84;86.34;101487.31;5065545;28;19916;-76
2021/04/06 04:08:51;;;;;;;;;;;;;;;0.85;85.82;101491.59;5086162;28;19912;-76
2021/04/06 04:11:16;;;;;;;;;;;;;;;0.92;84.46;101485.31;5085532;28;20427;-76
2021/04/06 04:13:41;;;;;;;;;;;;;;;0.94;84.50;101483.78;5088072;28;19935;-77
2021/04/06 04:16:06;;;;;;;;;;;;;;;1.00;84.09;101483.38;5084827;28;19923;-77
2021/04/06 04:18:32;;;;;;;;;;;;;;;1.01;82.98;101486.00;5086604;28;19911;-77
2021/04/06 04:20:57;;;;;;;;;;;;;;;1.01;83.07;101488.53;5083274;28;19955;-76
2021/04/06 04:23:22;;;;;;;;;;;;;;;1.03;83.23;101479.41;5066674;28;20285;-77
2021/04/06 04:25:47;;;;;;;;;;;;;;;1.07;82.38;101481.38;5081744;28;20006;-77
2021/04/06 04:28:12;;;;;;;;;;;;;;;1.15;82.85;101480.28;5080610;28;19919;-76
2021/04/06 04:30:41;;;;;;;;;;;;;;;1.31;80.06;101476.31;5086094;28;19965;-77
2021/04/06 04:33:08;;;;;;;;;;;;;;;1.38;79.47;101479.38;5068498;28;20528;-77
2021/04/06 04:35:34;;;;;;;;;;;;;;;1.47;79.57;101479.16;5085663;28;19924;-77
2021/04/06 04:37:59;;;;;;;;;;;;;;;1.50;79.94;101469.22;5065513;28;19912;-77
2021/04/06 04:40:25;;;;;;;;;;;;;;;1.50;80.80;101469.22;5066528;28;19920;-76
2021/04/06 04:42:51;;;;;;;;;;;;;;;1.50;81.24;101481.88;5069127;28;19912;-77
2021/04/06 04:45:16;;;;;;;;;;;;;;;1.33;82.62;101513.63;5073388;28;19916;-77
2021/04/06 04:47:42;;;;;;;;;;;;;;;1.04;85.34;101514.06;5088249;28;19919;-75
2021/04/06 04:50:07;;;;;;;;;;;;;;;0.86;86.51;101516.13;5087673;28;20603;-75
2021/04/06 04:52:33;;;;;;;;;;;;;;;0.72;87.70;101508.31;5085651;28;20011;-77
2021/04/06 04:54:58;;;;;;;;;;;;;;;0.60;88.02;101504.09;5065447;28;19912;-76
2021/04/06 04:57:23;;;;;;;;;;;;;;;0.60;88.46;101506.63;5081245;28;20324;-75
2021/04/06 04:59:48;;;;;;;;;;;;;;;0.54;88.40;101511.22;5084323;28;19916;-75
2021/04/06 05:02:13;;;;;;;;;;;;;;;0.50;88.52;101506.72;5082785;28;20006;-76
2021/04/06 05:04:38;;;;;;;;;;;;;;;0.45;88.96;101505.50;5080882;28;20374;-76
2021/04/06 05:07:04;;;;;;;;;;;;;;;0.43;88.63;101508.69;5062475;28;19913;-77
2021/04/06 05:09:29;;;;;;;;;;;;;;;0.43;88.49;101507.03;5064860;28;19943;-77
2021/04/06 05:11:54;;;;;;;;;;;;;;;0.35;89.09;101499.66;5084132;28;19918;-77
2021/04/06 05:14:19;;;;;;;;;;;;;;;0.34;89.17;101492.84;5066589;28;19924;-77
2021/04/06 05:16:45;;;;;;;;;;;;;;;0.34;88.83;101493.72;5066645;28;20301;-77
2021/04/06 05:19:10;;;;;;;;;;;;;;;0.35;88.93;101495.47;5082055;28;19916;-77
2021/04/06 05:21:35;;;;;;;;;;;;;;;0.38;88.47;101490.66;5063275;28;20015;-77
2021/04/06 05:24:00;;;;;;;;;;;;;;;0.39;88.32;101477.25;5065848;28;20377;-77
2021/04/06 05:26:25;;;;;;;;;;;;;;;0.43;88.25;101476.69;5086578;28;20617;-77
2021/04/06 05:28:50;;;;;;;;;;;;;;;0.42;88.46;101472.41;5064925;28;19912;-77
2021/04/06 05:31:16;;;;;;;;;;;;;;;0.47;88.35;101476.16;5061680;28;19919;-77
2021/04/06 05:33:41;;;;;;;;;;;;;;;0.50;88.45;101472.97;5065827;28;19912;-78
2021/04/06 05:36:06;;;;;;;;;;;;;;;0.68;88.75;101486.97;5083506;28;19917;-77
2021/04/06 05:38:31;;;;;;;;;;;;;;;0.74;88.40;101505.13;5081339;28;19912;-77
2021/04/06 05:40:57;;;;;;;;;;;;;;;0.77;87.97;101492.69;5067214;28;20095;-77
2021/04/06 05:43:22;;;;;;;;;;;;;;;0.56;89.00;101486.94;5063553;28;19961;-77
2021/04/06 05:45:51;;;;;;;;;;;;;;;0.39;90.54;101530.31;5086343;28;19916;-76
2021/04/06 05:48:16;;;;;;;;;;;;;;;0.26;91.55;101527.59;5068868;28;19912;-77
2021/04/06 05:50:46;;;;;;;;;;;;;;;0.24;92.00;101519.03;5062781;28;19919;-76
2021/04/06 05:53:11;;;;;;;;;;;;;;;0.22;91.77;101518.03;5065853;28;19919;-76
2021/04/06 05:55:36;;;;;;;;;;;;;;;0.26;91.66;101515.84;5066413;28;19916;-77
2021/04/06 05:58:02;;;;;;;;;;;;;;;0.28;91.75;101513.44;5063894;28;20465;-75
2021/04/06 06:00:27;;;;;;;;;;;;;;;0.33;91.71;101501.19;5061389;28;19916;-76
2021/04/06 06:02:52;;;;;;;;;;;;;;;0.39;91.14;101504.16;5082916;28;19912;-77
2021/04/06 06:05:17;;;;;;;;;;;;;;;0.40;91.24;101509.34;5084814;28;19924;-77
2021/04/06 06:07:43;;;;;;;;;;;;;;;0.45;90.77;101502.97;5066990;28;20684;-76
2021/04/06 06:10:25;;;;;;;;;;;;;;;0.49;91.01;101502.44;5064510;28;20270;-77
2021/04/06 06:12:50;;;;;;;;;;;;;;;0.54;90.91;101490.13;5064537;28;19919;-76
2021/04/06 06:15:15;;;;;;;;;;;;;;;0.53;90.73;101483.31;5068541;28;19916;-76
2021/04/06 06:17:40;;;;;;;;;;;;;;;0.60;90.77;101476.28;5060864;28;19919;-76
2021/04/06 06:20:14;;;;;;;;;;;;;;;0.63;90.51;101480.69;5067970;28;19912;-76
2021/04/06 06:22:39;;;;;;;;;;;;;;;0.70;90.44;101487.09;5060268;28;20006;-76
2021/04/06 06:25:06;;;;;;;;;;;;;;;1.37;90.32;101477.63;5063777;28;19958;-76
2021/04/06 06:27:36;;;;;;;;;;;;;;;2.53;88.09;101477.94;5062785;28;19962;-77
2021/04/06 06:30:25;;;;;;;;;;;;;;;3.70;82.07;101475.28;5061297;28;19912;-77
2021/04/06 06:33:09;;;;;;;;;;;;;;;4.93;76.05;101468.09;5064121;28;20282;-77
2021/04/06 06:35:34;;;;;;;;;;;;;;;5.30;72.67;101466.81;5063859;28;19966;-76
2021/04/06 06:38:13;;;;;;;;;;;;;;;4.69;72.59;101463.38;5078497;28;20330;-77
2021/04/06 06:40:38;;;;;;;;;;;;;;;3.50;74.71;101469.75;5082731;28;20260;-77
2021/04/06 06:43:03;;;;;;;;;;;;;;;3.24;76.47;101470.66;5065534;28;19912;-76
2021/04/06 06:45:33;;;;;;;;;;;;;;;3.49;76.38;101456.19;5083561;28;19919;-77
2021/04/06 06:47:59;;;;;;;;;;;;;;;4.36;73.71;101453.81;5078493;28;20476;-77
2021/04/06 06:50:25;;;;;;;;;;;;;;;5.28;70.61;101454.78;5060404;28;19912;-75
2021/04/06 06:52:54;;;;;;;;;;;;;;;6.07;66.71;101447.94;5063412;28;19912;-76
2021/04/06 06:55:25;;;;;;;;;;;;;;;6.73;64.32;101447.88;5083425;28;20007;-78
2021/04/06 06:58:00;;;;;;;;;;;;;;;7.01;61.89;101456.88;5083427;28;19951;-77
2021/04/06 07:00:26;;;;;;;;;;;;;;;6.83;60.41;101451.78;5078726;28;19912;-77
2021/04/06 07:02:51;;;;;;;;;;;;;;;7.07;60.32;101455.50;5081585;28;19912;-77
2021/04/06 07:05:16;;;;;;;;;;;;;;;7.26;60.13;101452.13;5068185;28;19934;-78
2021/04/06 07:08:00;;;;;;;;;;;;;;;7.26;59.38;101459.81;5060812;28;19935;-77
2021/04/06 07:10:29;;;;;;;;;;;;;;;6.99;58.11;101456.81;5064771;28;19969;-78
2021/04/06 07:13:04;;;;;;;;;;;;;;;7.12;58.31;101454.03;5066222;28;19961;-77
2021/04/06 07:15:30;;;;;;;;;;;;;;;8.02;59.04;101444.47;5066889;28;20382;-76
2021/04/06 07:17:59;;;;;;;;;;;;;;;8.16;55.44;101450.22;5087229;28;19943;-78
2021/04/06 07:20:25;;;;;;;;;;;;;;;6.41;57.63;101441.19;5068652;28;19912;-79
2021/04/06 07:22:54;;;;;;;;;;;;;;;6.21;60.60;101447.00;5084810;28;19912;-77
2021/04/06 07:25:20;;;;;;;;;;;;;;;6.79;60.35;101452.41;5067191;28;19913;-78
2021/04/06 07:27:45;;;;;;;;;;;;;;;7.00;59.19;101448.34;5086661;28;19923;-78
2021/04/06 07:30:11;;;;;;;;;;;;;;;6.76;58.90;101448.03;5065919;28;19917;-77
2021/04/06 07:32:39;;;;;;;;;;;;;;;6.72;58.86;101448.69;5083597;28;19912;-78
2021/04/06 07:35:04;;;;;;;;;;;;;;;7.66;58.23;101443.72;5085161;28;19978;-77
2021/04/06 07:37:30;;;;;;;;;;;;;;;8.20;55.64;101442.72;5064947;28;19951;-78
2021/04/06 07:39:59;;;;;;;;;;;;;;;8.67;53.61;101444.72;5084994;28;19920;-77
2021/04/06 07:42:24;;;;;;;;;;;;;;;9.22;54.03;101434.13;5084125;28;19920;-77
2021/04/06 07:44:49;;;;;;;;;;;;;;;10.16;52.37;101428.16;5066009;28;19964;-77
2021/04/06 07:47:34;;;;;;;;;;;;;;;10.52;50.29;101424.28;5083197;28;19919;-77
2021/04/06 07:49:59;;;;;;;;;;;;;;;8.95;51.98;101418.53;5065275;28;20301;-78
2021/04/06 07:52:24;;;;;;;;;;;;;;;7.42;55.36;101434.13;5084474;28;19912;-77
2021/04/06 07:54:50;;;;;;;;;;;;;;;5.80;59.04;101444.81;5084744;28;19927;-77
2021/04/06 07:57:15;;;;;;;;;;;;;;;4.52;65.17;101445.38;5066410;28;19921;-77
2021/04/06 07:59:43;;;;;;;;;;;;;;;3.84;68.11;101452.38;5083218;28;19916;-77
2021/04/06 08:02:08;;;;;;;;;;;;;;;3.64;67.65;101449.50;5067232;28;20010;-76
2021/04/06 08:04:37;;;;;;;;;;;;;;;3.71;67.07;101451.63;5063592;28;19974;-76
2021/04/06 08:07:20;;;;;;;;;;;;;;;4.79;66.66;101444.41;5087819;28;19916;-77
2021/04/06 08:09:46;;;;;;;;;;;;;;;5.83;61.36;101439.88;5066580;28;20011;-78
2021/04/06 08:12:30;;;;;;;;;;;;;;;7.80;56.42;101432.41;5067620;28;20023;-77
2021/04/06 08:15:02;;;;;;;;;;;;;;;5.66;63.98;101471.25;5082576;28;19935;-77
2021/04/06 08:17:27;;;;;;;;;;;;;;;4.36;68.49;101495.38;5083034;28;19920;-77
2021/04/06 08:19:52;;;;;;;;;;;;;;;3.94;72.76;101495.38;5061172;28;19919;-78
2021/04/06 08:22:21;;;;;;;;;;;;;;;3.08;74.58;101499.28;5080926;28;19916;-76
2021/04/06 08:24:46;;;;;;;;;;;;;;;3.04;76.64;101500.75;5062522;28;19912;-76
2021/04/06 08:27:30;;;;;;;;;;;;;;;3.04;75.54;101497.34;5065282;28;19919;-77
2021/04/06 08:30:14;;;;;;;;;;;;;;;2.96;76.01;101504.47;5060291;28;19920;-78
2021/04/06 08:32:39;;;;;;;;;;;;;;;4.84;72.67;101476.06;5077870;28;19962;-77
2021/04/06 08:35:05;;;;;;;;;;;;;;;6.20;66.21;101461.44;5065116;28;19911;-76
2021/04/06 08:37:35;;;;;;;;;;;;;;;7.28;61.86;101457.31;5080085;28;19912;-76
2021/04/06 08:40:01;;;;;;;;;;;;;;;8.37;58.62;101459.69;5084442;28;20043;-76
2021/04/06 08:42:26;;;;;;;;;;;;;;;8.43;55.82;101459.06;5064707;28;19991;-77
2021/04/06 08:44:56;;;;;;;;;;;;;;;9.25;53.66;101443.59;5062071;28;19912;-76
2021/04/06 08:47:37;;;;;;;;;;;;;;;10.02;50.13;101437.03;5062683;28;19961;-77
2021/04/06 08:50:04;;;;;;;;;;;;;;;9.38;51.93;101438.13;5081123;28;19912;-75
2021/04/06 08:52:29;;;;;;;;;;;;;;;9.40;51.54;101436.50;5081612;28;20489;-77
2021/04/06 08:55:04;;;;;;;;;;;;;;;10.78;51.58;101442.25;5063009;28;20012;-76
2021/04/06 08:57:29;;;;;;;;;;;;;;;11.46;48.03;101426.38;5082829;28;20393;-76
2021/04/06 08:59:54;;;;;;;;;;;;;;;11.53;47.21;101422.28;5082154;28;19916;-77
2021/04/06 09:02:19;;;;;;;;;;;;;;;11.63;46.96;101426.84;5084327;28;20004;-77
2021/04/06 09:04:49;;;;;;;;;;;;;;;12.65;49.12;101423.59;5060546;28;19979;-77
2021/04/06 09:07:15;;;;;;;;;;;;;;;12.68;43.93;101415.91;5060584;28;19961;-76
2021/04/06 09:09:40;;;;;;;;;;;;;;;12.20;45.81;101416.44;5062274;28;19912;-77
2021/04/06 09:12:06;;;;;;;;;;;;;;;10.98;48.65;101420.59;5058616;28;19923;-77
2021/04/06 09:14:31;;;;;;;;;;;;;;;8.02;53.20;101426.56;5061150;28;20011;-77
2021/04/06 09:16:56;;;;;;;;;;;;;;;6.56;59.58;101453.88;5079281;28;20270;-77
2021/04/06 09:19:22;;;;;;;;;;;;;;;6.13;63.13;101455.91;5072266;28;20373;-77
2021/04/06 09:21:49;;;;;;;;;;;;;;;5.32;67.07;101460.13;5079188;28;19923;-76
2021/04/06 09:24:15;;;;;;;;;;;;;;;4.94;69.33;101458.00;5084662;28;19912;-76
2021/04/06 09:26:41;;;;;;;;;;;;;;;4.84;70.45;101462.47;5066209;28;20369;-76
2021/04/06 09:29:15;;;;;;;;;;;;;;;5.04;70.62;101456.84;5080610;28;20010;-77
2021/04/06 09:31:45;;;;;;;;;;;;;;;5.26;69.70;101454.69;5070870;28;19912;-76
2021/04/06 09:34:12;;;;;;;;;;;;;;;5.62;68.42;101447.28;5076398;28;19961;-77
2021/04/06 09:36:38;;;;;;;;;;;;;;;6.24;66.10;101444.59;5062778;28;19917;-76
2021/04/06 09:39:05;;;;;;;;;;;;;;;7.08;62.33;101435.94;5070851;28;20329;-77
2021/04/06 09:41:31;;;;;;;;;;;;;;;8.24;59.42;101438.59;5055253;28;19916;-76
2021/04/06 09:43:57;;;;;;;;;;;;;;;8.04;57.64;101433.50;5066849;28;19957;-76
2021/04/06 09:46:31;;;;;;;;;;;;;;;6.74;58.24;101431.78;5086782;28;20408;-76
2021/04/06 09:48:56;;;;;;;;;;;;;;;6.96;56.94;101431.13;5065322;28;20015;-76
2021/04/06 09:51:22;;;;;;;;;;;;;;;8.40;54.64;101423.97;5060360;28;20028;-76
2021/04/06 09:53:47;;;;;;;;;;;;;;;9.65;50.57;101413.50;5080466;28;19923;-76
2021/04/06 09:56:13;;;;;;;;;;;;;;;10.54;48.06;101404.66;5090709;28;19916;-78
2021/04/06 09:58:39;;;;;;;;;;;;;;;10.89;45.56;101413.50;5058388;28;19920;-77
2021/04/06 10:01:16;;;;;;;;;;;;;;;11.21;44.94;101398.19;5062334;28;19920;-77
2021/04/06 10:03:46;;;;;;;;;;;;;;;11.07;47.21;101410.63;5078261;28;20426;-77
2021/04/06 10:06:12;;;;;;;;;;;;;;;10.74;47.05;101399.31;5080052;28;19927;-76
2021/04/06 10:08:38;;;;;;;;;;;;;;;8.90;49.21;101404.66;5077697;28;19924;-76
2021/04/06 10:11:03;;;;;;;;;;;;;;;8.00;53.28;101416.28;5057945;28;19942;-77
2021/04/06 10:13:29;;;;;;;;;;;;;;;7.02;56.62;101435.66;5058413;28;19961;-76
2021/04/06 10:16:17;;;;;;;;;;;;;;;5.92;63.05;101446.38;5075873;28;19923;-76
2021/04/06 10:18:43;;;;;;;;;;;;;;;4.92;68.05;101451.97;5087467;28;19970;-79
2021/04/06 10:21:16;;;;;;;;;;;;;;;4.37;71.74;101438.63;5087537;28;19958;-77
2021/04/06 10:23:41;;;;;;;;;;;;;;;4.26;73.42;101437.13;5058740;28;19912;-76
2021/04/06 10:26:15;;;;;;;;;;;;;;;4.23;73.79;101442.06;5065365;28;19912;-78
2021/04/06 10:28:41;;;;;;;;;;;;;;;4.06;73.27;101435.97;5066734;28;19919;-77
2021/04/06 10:31:06;;;;;;;;;;;;;;;4.13;74.23;101433.78;5061099;28;19912;-77
2021/04/06 10:33:32;;;;;;;;;;;;;;;4.36;74.30;101436.00;5059938;28;20015;-77
2021/04/06 10:35:59;;;;;;;;;;;;;;;5.90;71.68;101424.16;5083897;28;19924;-77
2021/04/06 10:38:29;;;;;;;;;;;;;;;7.01;67.66;101416.91;5079646;28;19939;-76
2021/04/06 10:41:02;;;;;;;;;;;;;;;6.60;65.44;101414.03;5079382;28;19912;-76
2021/04/06 10:43:28;;;;;;;;;;;;;;;6.06;66.62;101400.28;5068273;28;19950;-76
2021/04/06 10:46:01;;;;;;;;;;;;;;;5.77;67.76;101404.72;5068668;28;19958;-75
2021/04/06 10:48:27;;;;;;;;;;;;;;;5.87;69.13;101399.34;5076155;28;19919;-77
2021/04/06 10:50:57;;;;;;;;;;;;;;;5.82;68.71;101398.19;5062312;28;19912;-76
2021/04/06 10:53:26;;;;;;;;;;;;;;;5.99;66.77;101381.25;5062768;28;19912;-77
2021/04/06 10:55:54;;;;;;;;;;;;;;;7.20;67.21;101384.53;5056073;28;20343;-76
2021/04/06 10:58:20;;;;;;;;;;;;;;;8.52;59.12;101368.97;5072847;28;19920;-77
2021/04/06 11:00:53;;;;;;;;;;;;;;;7.98;58.72;101371.84;5074300;28;20469;-76
2021/04/06 11:03:19;;;;;;;;;;;;;;;5.96;60.67;101388.75;5086594;28;20381;-76
2021/04/06 11:05:45;;;;;;;;;;;;;;;5.02;67.15;101406.63;5075972;28;19958;-76
2021/04/06 11:08:26;;;;;;;;;;;;;;;4.27;71.16;101395.66;5086038;28;20318;-77
2021/04/06 11:10:53;;;;;;;;;;;;;;;3.34;75.95;101425.66;5081455;28;19966;-75
2021/04/06 11:13:19;;;;;;;;;;;;;;;2.91;78.39;101438.94;5069760;28;19915;-76
2021/04/06 11:15:44;;;;;;;;;;;;;;;2.51;78.31;101416.09;5082285;28;19923;-76
2021/04/06 11:18:10;;;;;;;;;;;;;;;2.41;78.99;101414.63;5062691;28;19928;-75
2021/04/06 11:20:35;;;;;;;;;;;;;;;2.65;77.95;101404.34;5065147;28;19912;-76
2021/04/06 11:23:00;;;;;;;;;;;;;;;2.94;77.57;101402.00;5086106;28;20027;-76
2021/04/06 11:25:26;;;;;;;;;;;;;;;3.99;75.95;101397.38;5074192;28;19955;-76
2021/04/06 11:27:52;;;;;;;;;;;;;;;5.57;70.94;101390.09;5072723;28;19919;-76
2021/04/06 11:30:17;;;;;;;;;;;;;;;6.67;65.01;101388.88;5063508;28;19919;-75
2021/04/06 11:32:43;;;;;;;;;;;;;;;7.30;63.16;101382.47;5074264;28;19911;-76
2021/04/06 11:35:08;;;;;;;;;;;;;;;7.56;62.00;101368.31;5073358;28;19962;-76
2021/04/06 11:37:33;;;;;;;;;;;;;;;7.51;59.85;101364.69;5081648;28;20006;-76
2021/04/06 11:39:58;;;;;;;;;;;;;;;7.19;60.67;101373.44;5089871;28;19982;-75
2021/04/06 11:42:24;;;;;;;;;;;;;;;5.36;68.85;101343.09;5081784;28;20472;-76
2021/04/06 11:44:49;;;;;;;;;;;;;;;4.05;75.51;101405.38;5066654;28;20006;-77
2021/04/06 11:47:15;;;;;;;;;;;;;;;3.29;78.07;101419.41;5092386;28;20002;-76
2021/04/06 11:49:40;;;;;;;;;;;;;;;2.79;80.29;101428.91;5069869;28;19958;-76
2021/04/06 11:52:06;;;;;;;;;;;;;;;2.79;82.34;101413.69;5067622;28;19992;-76
2021/04/06 11:54:31;;;;;;;;;;;;;;;2.92;82.19;101421.28;5080205;28;20346;-76
2021/04/06 11:56:56;;;;;;;;;;;;;;;2.97;81.46;101414.88;5065425;28;20334;-76
2021/04/06 11:59:22;;;;;;;;;;;;;;;3.03;81.23;101415.25;5061985;28;19912;-76
2021/04/06 12:01:47;;;;;;;;;;;;;;;3.11;81.29;101419.13;5064404;28;19928;-76
2021/04/06 12:04:13;;;;;;;;;;;;;;;3.40;81.26;101413.31;5067343;28;20400;-77
2021/04/06 12:06:39;;;;;;;;;;;;;;;3.65;79.54;101404.66;5065390;28;19920;-76
2021/04/06 12:09:04;;;;;;;;;;;;;;;3.84;77.81;101391.38;5063449;28;19919;-77
2021/04/06 12:11:30;;;;;;;;;;;;;;;3.97;77.93;101388.78;5080776;28;19912;-77
2021/04/06 12:13:55;;;;;;;;;;;;;;;4.12;77.60;101384.59;5085029;28;19918;-77
2021/04/06 12:16:20;;;;;;;;;;;;;;;4.19;77.73;101380.72;5069989;28;19916;-77
2021/04/06 12:18:46;;;;;;;;;;;;;;;4.30;76.89;101380.56;5079143;28;19918;-77
2021/04/06 12:21:11;;;;;;;;;;;;;;;4.64;77.25;101375.72;5078700;28;19912;-77
2021/04/06 12:23:37;;;;;;;;;;;;;;;4.63;75.42;101380.72;5062390;28;19915;-78
2021/04/06 12:26:02;;;;;;;;;;;;;;;4.47;74.30;101383.19;5059375;28;19912;-76
2021/04/06 12:28:27;;;;;;;;;;;;;;;4.42;74.79;101384.59;5059338;28;19953;-76
2021/04/06 12:30:52;;;;;;;;;;;;;;;4.19;75.30;101391.78;5085550;28;19912;-76
2021/04/06 12:33:18;;;;;;;;;;;;;;;3.79;76.12;101392.78;5077644;28;19937;-76
2021/04/06 12:35:43;;;;;;;;;;;;;;;3.29;77.67;101404.19;5080657;28;19916;-77
2021/04/06 12:38:08;;;;;;;;;;;;;;;2.55;79.21;101407.03;5064321;28;19919;-77
2021/04/06 12:40:34;;;;;;;;;;;;;;;2.16;80.20;101396.06;5067237;28;20009;-79
2021/04/06 12:42:59;;;;;;;;;;;;;;;2.02;81.62;101392.63;5065465;28;19926;-77
2021/04/06 12:45:25;;;;;;;;;;;;;;;2.10;81.61;101393.13;5082347;28;19915;-78